createdAt,value
2024-01-15T00:00:28.007Z,90.12
2024-01-15T00:02:54.671Z,90.70
2024-01-15T00:05:21.199Z,90.13
2024-01-15T00:07:47.580Z,90.75
2024-01-15T00:10:14.073Z,90.92
2024-01-15T00:12:40.593Z,90.71
2024-01-15T00:15:07.452Z,90.16
2024-01-15T00:17:33.960Z,91.09
2024-01-15T00:20:00.601Z,90.62
2024-01-15T00:22:28.210Z,90.49
2024-01-15T00:24:54.672Z,91.52
2024-01-15T00:27:21.226Z,91.68
2024-01-15T00:29:47.691Z,92.14
2024-01-15T00:32:14.146Z,91.73
2024-01-15T00:34:40.733Z,91.61
2024-01-15T00:37:07.996Z,92.15
2024-01-15T00:39:34.522Z,92.34
2024-01-15T00:42:00.930Z,92.04
2024-01-15T00:44:27.340Z,92.08
2024-01-15T00:46:53.735Z,91.83
2024-01-15T00:49:20.231Z,91.45
2024-01-15T00:51:46.703Z,91.75
2024-01-15T00:54:13.272Z,91.01
2024-01-15T00:56:39.800Z,91.22
2024-01-15T00:59:06.264Z,91.42
2024-01-15T01:01:32.840Z,90.72
2024-01-15T01:03:59.348Z,90.86
2024-01-15T01:06:26.129Z,90.18
2024-01-15T01:08:52.696Z,90.59
2024-01-15T01:11:19.292Z,91.50
2024-01-15T01:13:45.774Z,91.29
2024-01-15T01:16:12.290Z,91.06
2024-01-15T01:18:38.949Z,91.04
2024-01-15T01:21:05.519Z,90.88
2024-01-15T01:23:31.997Z,91.12
2024-01-15T01:25:58.462Z,91.10
2024-01-15T01:28:24.923Z,90.87
2024-01-15T01:30:51.563Z,91.23
2024-01-15T01:33:18.263Z,91.24
2024-01-15T01:35:46.116Z,90.66
2024-01-15T01:38:12.562Z,91.07
2024-01-15T01:40:39.021Z,91.35
2024-01-15T01:43:06.462Z,91.53
2024-01-15T01:45:33.084Z,90.96
2024-01-15T01:48:00.569Z,90.83
2024-01-15T01:50:27.288Z,91.23
2024-01-15T01:52:54.009Z,90.81
2024-01-15T01:55:22.338Z,91.40
2024-01-15T01:57:49.174Z,91.10
2024-01-15T02:00:16.032Z,91.18
2024-01-15T02:02:42.543Z,91.50
2024-01-15T02:05:10.263Z,91.03
2024-01-15T02:07:37.252Z,91.14
2024-01-15T02:10:03.897Z,91.01
2024-01-15T02:12:30.382Z,91.79
2024-01-15T02:14:56.855Z,91.56
2024-01-15T02:17:23.361Z,91.11
2024-01-15T02:19:51.148Z,90.78
2024-01-15T02:22:17.860Z,91.25
2024-01-15T02:24:44.607Z,91.17
2024-01-15T02:27:11.416Z,91.39
2024-01-15T02:29:38.030Z,91.21
2024-01-15T02:32:09.821Z,91.01
2024-01-15T02:34:36.409Z,91.18
2024-01-15T02:37:03.333Z,91.69
2024-01-15T02:39:30.243Z,91.63
2024-01-15T02:41:58.758Z,91.39
2024-01-15T02:44:25.303Z,91.82
2024-01-15T02:46:53.780Z,91.82
2024-01-15T02:49:20.267Z,91.30
2024-01-15T02:51:47.913Z,90.92
2024-01-15T02:54:14.523Z,90.83
2024-01-15T02:56:41.003Z,90.91
2024-01-15T02:59:07.434Z,90.49
2024-01-15T03:01:33.928Z,90.10
2024-01-15T03:04:00.495Z,90.29
2024-01-15T03:06:28.507Z,90.26
2024-01-15T03:08:54.971Z,89.93
2024-01-15T03:11:21.383Z,90.32
2024-01-15T03:13:47.822Z,90.08
2024-01-15T03:16:15.017Z,89.42
2024-01-15T03:18:41.531Z,90.04
2024-01-15T03:21:08.038Z,89.60
2024-01-15T03:23:34.439Z,90.02
2024-01-15T03:26:01.338Z,89.54
2024-01-15T03:28:27.780Z,88.51
2024-01-15T03:30:54.289Z,88.69
2024-01-15T03:33:21.020Z,88.00
2024-01-15T03:35:47.660Z,87.79
2024-01-15T03:38:14.015Z,87.49
2024-01-15T03:40:40.816Z,87.32
2024-01-15T03:43:07.305Z,87.05
2024-01-15T03:45:33.783Z,86.29
2024-01-15T03:48:00.387Z,85.63
2024-01-15T03:50:26.860Z,85.21
2024-01-15T03:52:53.216Z,84.91
2024-01-15T03:55:19.618Z,84.53
2024-01-15T03:57:46.109Z,85.19
2024-01-15T04:00:13.336Z,84.59
2024-01-15T04:02:39.753Z,84.44
2024-01-15T04:05:06.698Z,84.81
2024-01-15T04:07:33.125Z,84.58
2024-01-15T04:10:00.616Z,84.85
2024-01-15T04:12:27.141Z,84.19
2024-01-15T04:14:53.538Z,84.79
2024-01-15T04:17:20.030Z,85.21
2024-01-15T04:19:46.675Z,85.27
2024-01-15T04:22:13.226Z,85.52
2024-01-15T04:24:39.710Z,84.76
2024-01-15T04:27:07.430Z,84.68
2024-01-15T04:29:33.910Z,84.93
2024-01-15T04:32:00.457Z,84.65
2024-01-15T04:34:27.298Z,84.21
2024-01-15T04:36:53.774Z,85.04
2024-01-15T04:39:20.230Z,85.25
2024-01-15T04:41:46.677Z,85.12
2024-01-15T04:44:13.108Z,85.01
2024-01-15T04:46:39.576Z,84.16
2024-01-15T04:49:06.134Z,84.27
2024-01-15T04:51:32.639Z,84.01
2024-01-15T04:53:59.080Z,83.26
2024-01-15T04:56:25.496Z,84.05
2024-01-15T04:58:51.887Z,83.49
2024-01-15T05:01:18.714Z,83.27
2024-01-15T05:03:45.358Z,82.63
2024-01-15T05:06:11.934Z,82.98
2024-01-15T05:08:38.383Z,83.42
2024-01-15T05:11:04.856Z,83.21
2024-01-15T05:13:31.291Z,83.87
2024-01-15T05:15:57.805Z,83.90
2024-01-15T05:18:24.509Z,83.92
2024-01-15T05:20:50.946Z,83.70
2024-01-15T05:23:17.403Z,83.83
2024-01-15T05:25:43.796Z,84.00
2024-01-15T05:28:11.479Z,84.52
2024-01-15T05:30:38.069Z,84.91
2024-01-15T05:33:05.048Z,85.99
2024-01-15T05:35:31.510Z,86.08
2024-01-15T05:37:57.878Z,86.63
2024-01-15T05:40:24.307Z,86.15
2024-01-15T05:42:50.802Z,86.24
2024-01-15T05:45:17.720Z,85.64
2024-01-15T05:47:45.082Z,85.79
2024-01-15T05:50:11.528Z,85.76
2024-01-15T05:52:37.922Z,85.88
2024-01-15T05:55:04.617Z,85.26
2024-01-15T05:57:31.183Z,84.69
2024-01-15T05:59:57.626Z,85.06
2024-01-15T06:02:24.147Z,82.46
2024-01-15T06:04:50.801Z,82.67
2024-01-15T06:07:17.486Z,81.73
2024-01-15T06:09:43.907Z,81.43
2024-01-15T06:12:10.484Z,81.64
2024-01-15T06:14:37.052Z,80.94
2024-01-15T06:17:03.796Z,80.81
2024-01-15T06:19:30.401Z,80.71
2024-01-15T06:21:57.131Z,80.92
2024-01-15T06:24:23.746Z,80.81
2024-01-15T06:26:50.315Z,80.97
2024-01-15T06:29:16.786Z,80.90
2024-01-15T06:31:43.302Z,80.87
2024-01-15T06:34:09.928Z,81.27
2024-01-15T06:36:36.466Z,81.88
2024-01-15T06:39:03.509Z,82.09
2024-01-15T06:41:29.878Z,82.29
2024-01-15T06:43:58.800Z,82.24
2024-01-15T06:46:25.404Z,82.10
2024-01-15T06:48:52.050Z,81.99
2024-01-15T06:51:18.512Z,82.40
2024-01-15T06:53:44.968Z,82.24
2024-01-15T06:56:11.409Z,83.00
2024-01-15T06:58:38.039Z,82.32
2024-01-15T07:01:05.953Z,82.65
2024-01-15T07:03:32.823Z,82.06
2024-01-15T07:05:59.422Z,82.16
2024-01-15T07:08:26.006Z,82.21
2024-01-15T07:10:53.082Z,81.18
2024-01-15T07:13:19.504Z,81.62
2024-01-15T07:15:46.026Z,81.40
2024-01-15T07:18:12.665Z,81.01
2024-01-15T07:20:39.248Z,81.49
2024-01-15T07:23:05.745Z,81.00
2024-01-15T07:25:32.293Z,81.17
2024-01-15T07:27:58.809Z,81.01
2024-01-15T07:30:25.349Z,81.19
2024-01-15T07:32:53.495Z,81.63
2024-01-15T07:35:20.477Z,81.41
2024-01-15T07:37:47.179Z,81.55
2024-01-15T07:40:13.700Z,81.72
2024-01-15T07:42:40.410Z,81.71
2024-01-15T07:45:07.219Z,81.58
2024-01-15T07:47:33.691Z,81.55
2024-01-15T07:50:04.384Z,81.90
2024-01-15T07:52:33.132Z,82.45
2024-01-15T07:55:04.573Z,81.92
2024-01-15T07:57:31.060Z,81.91
2024-01-15T07:59:57.522Z,82.12
2024-01-15T08:02:23.974Z,82.37
2024-01-15T08:04:50.343Z,82.26
2024-01-15T08:07:17.053Z,82.05
2024-01-15T08:09:43.650Z,82.14
2024-01-15T08:12:11.352Z,82.68
2024-01-15T08:14:37.771Z,82.96
2024-01-15T08:17:04.326Z,82.70
2024-01-15T08:19:31.106Z,82.98
2024-01-15T08:21:57.751Z,82.78
2024-01-15T08:24:24.272Z,83.23
2024-01-15T08:26:50.714Z,82.86
2024-01-15T08:29:17.320Z,83.49
2024-01-15T08:31:43.908Z,83.26
2024-01-15T08:34:10.594Z,83.57
2024-01-15T08:36:38.002Z,84.02
2024-01-15T08:39:05.494Z,83.29
2024-01-15T08:41:34.618Z,84.10
2024-01-15T08:44:01.205Z,84.22
2024-01-15T08:46:27.602Z,84.00
2024-01-15T08:48:54.118Z,84.85
2024-01-15T08:51:20.649Z,84.82
2024-01-15T08:53:47.052Z,84.72
2024-01-15T08:56:13.491Z,84.55
2024-01-15T08:58:40.150Z,84.27
2024-01-15T09:01:06.770Z,85.18
2024-01-15T09:03:34.990Z,85.13
2024-01-15T09:06:01.580Z,85.17
2024-01-15T09:08:28.816Z,84.79
2024-01-15T09:10:55.310Z,84.98
2024-01-15T09:13:21.741Z,85.85
2024-01-15T09:15:48.397Z,85.29
2024-01-15T09:18:15.020Z,85.97
2024-01-15T09:20:41.459Z,85.12
2024-01-15T09:23:08.301Z,85.20
2024-01-15T09:25:34.817Z,85.29
2024-01-15T09:28:01.296Z,85.05
2024-01-15T09:30:27.943Z,85.26
2024-01-15T09:32:56.817Z,84.97
2024-01-15T09:35:25.378Z,85.31
2024-01-15T09:37:52.098Z,84.78
2024-01-15T09:40:21.211Z,85.02
2024-01-15T09:42:48.395Z,84.43
2024-01-15T09:45:15.650Z,84.92
2024-01-15T09:47:45.777Z,84.85
2024-01-15T09:50:14.354Z,84.12
2024-01-15T09:52:43.406Z,85.33
2024-01-15T09:55:10.791Z,85.32
2024-01-15T09:57:38.165Z,85.62
2024-01-15T10:00:06.713Z,85.46
2024-01-15T10:02:33.766Z,86.16
2024-01-15T10:05:00.370Z,86.63
2024-01-15T10:07:27.387Z,86.17
2024-01-15T10:09:54.026Z,86.54
2024-01-15T10:12:23.477Z,86.90
2024-01-15T10:14:51.425Z,86.81
2024-01-15T10:17:18.604Z,86.27
2024-01-15T10:19:51.147Z,85.51
2024-01-15T10:22:20.221Z,85.21
2024-01-15T10:24:48.668Z,85.32
2024-01-15T10:27:16.149Z,85.25
2024-01-15T10:29:43.475Z,85.42
2024-01-15T10:32:10.496Z,85.33
2024-01-15T10:34:44.562Z,85.91
2024-01-15T10:37:11.501Z,85.83
2024-01-15T10:39:38.910Z,85.42
2024-01-15T10:42:07.293Z,85.68
2024-01-15T10:44:33.872Z,86.46
2024-01-15T10:47:00.527Z,86.65
2024-01-15T10:49:31.894Z,86.69
2024-01-15T10:52:00.178Z,86.81
2024-01-15T10:54:28.789Z,86.79
2024-01-15T10:56:57.488Z,87.09
2024-01-15T10:59:24.431Z,86.88
2024-01-15T11:01:55.290Z,87.29
2024-01-15T11:04:23.421Z,86.97
2024-01-15T11:06:55.610Z,87.22
2024-01-15T11:09:22.668Z,86.87
2024-01-15T11:11:53.637Z,87.74
2024-01-15T11:14:38.782Z,87.37
2024-01-15T11:17:06.524Z,87.24
2024-01-15T11:19:42.288Z,86.90
2024-01-15T11:22:10.301Z,86.82
2024-01-15T11:24:40.806Z,86.91
2024-01-15T11:27:09.044Z,87.66
2024-01-15T11:29:38.056Z,87.16
2024-01-15T11:32:11.183Z,87.30
2024-01-15T11:35:04.908Z,87.34
2024-01-15T11:37:51.640Z,87.08
2024-01-15T11:40:22.862Z,86.74
2024-01-15T11:42:50.556Z,87.35
2024-01-15T11:45:19.896Z,86.99
2024-01-15T11:48:13.281Z,87.16
2024-01-15T11:50:50.247Z,87.25
2024-01-15T11:53:49.993Z,87.22
2024-01-15T11:56:19.050Z,87.75
2024-01-15T11:58:46.002Z,87.54
2024-01-15T12:01:12.716Z,87.62
2024-01-15T12:03:39.371Z,87.38
2024-01-15T12:06:11.227Z,87.35
2024-01-15T12:08:37.809Z,87.26
2024-01-15T12:11:16.683Z,87.40
2024-01-15T12:13:43.262Z,87.10
2024-01-15T12:16:09.854Z,87.46
2024-01-15T12:18:36.741Z,87.56
2024-01-15T12:21:05.156Z,87.09
2024-01-15T12:23:31.553Z,86.95
2024-01-15T12:25:58.015Z,86.91
2024-01-15T12:28:24.438Z,86.86
2024-01-15T12:30:51.625Z,86.44
2024-01-15T12:33:21.028Z,87.46
2024-01-15T12:35:47.764Z,86.62
2024-01-15T12:38:14.164Z,86.92
2024-01-15T12:40:40.543Z,87.39
2024-01-15T12:43:08.237Z,87.37
2024-01-15T12:45:36.749Z,87.83
2024-01-15T12:48:04.611Z,87.23
2024-01-15T12:50:31.773Z,87.50
2024-01-15T12:52:59.911Z,87.24
2024-01-15T12:55:26.543Z,87.18
2024-01-15T12:57:55.647Z,87.18
2024-01-15T13:00:22.439Z,86.82
2024-01-15T13:02:50.693Z,87.10
2024-01-15T13:05:17.771Z,87.42
2024-01-15T13:07:45.042Z,87.58
2024-01-15T13:10:12.408Z,87.41
2024-01-15T13:12:39.673Z,86.86
2024-01-15T13:15:08.820Z,87.04
2024-01-15T13:17:35.333Z,87.12
2024-01-15T13:20:02.030Z,87.03
2024-01-15T13:22:33.297Z,87.09
2024-01-15T13:25:00.605Z,87.09
2024-01-15T13:27:27.505Z,87.57
2024-01-15T13:29:54.002Z,87.64
2024-01-15T13:32:26.631Z,87.50
2024-01-15T13:34:53.268Z,86.79
2024-01-15T13:37:19.770Z,86.24
2024-01-15T13:39:46.219Z,86.83
2024-01-15T13:42:12.974Z,87.01
2024-01-15T13:44:42.374Z,86.95
2024-01-15T13:47:10.097Z,86.38
2024-01-15T13:49:37.843Z,86.36
2024-01-15T13:52:05.105Z,86.57
2024-01-15T13:54:42.066Z,86.70
2024-01-15T13:57:15.569Z,86.74
2024-01-15T13:59:42.161Z,86.93
2024-01-15T14:02:08.536Z,87.38
2024-01-15T14:04:34.981Z,86.58
2024-01-15T14:07:01.407Z,86.97
2024-01-15T14:09:27.814Z,86.47
2024-01-15T14:11:54.534Z,86.27
2024-01-15T14:14:21.038Z,86.43
2024-01-15T14:16:47.792Z,86.96
2024-01-15T14:19:14.406Z,86.20
2024-01-15T14:21:40.933Z,86.81
2024-01-15T14:24:08.637Z,87.18
2024-01-15T14:26:35.360Z,86.88
2024-01-15T14:29:01.788Z,86.70
2024-01-15T14:31:29.533Z,86.66
2024-01-15T14:34:00.590Z,86.95
2024-01-15T14:36:27.077Z,86.76
2024-01-15T14:38:53.632Z,86.68
2024-01-15T14:41:22.190Z,86.69
2024-01-15T14:43:48.652Z,86.22
2024-01-15T14:46:15.130Z,86.14
2024-01-15T14:48:41.691Z,86.95
2024-01-15T14:51:08.502Z,86.55
2024-01-15T14:53:36.858Z,86.12
2024-01-15T14:56:04.088Z,86.35
2024-01-15T14:58:30.700Z,86.30
2024-01-15T15:00:57.576Z,85.70
2024-01-15T15:03:24.257Z,85.99
2024-01-15T15:05:50.736Z,85.67
2024-01-15T15:08:17.287Z,85.61
2024-01-15T15:10:43.833Z,85.51
2024-01-15T15:13:11.338Z,85.75
2024-01-15T15:15:38.070Z,85.12
2024-01-15T15:18:04.753Z,84.97
2024-01-15T15:20:31.491Z,85.66
2024-01-15T15:22:58.316Z,85.70
2024-01-15T15:25:51.445Z,85.17
2024-01-15T15:28:20.269Z,85.83
2024-01-15T15:30:50.073Z,85.84
2024-01-15T15:33:17.053Z,85.54
2024-01-15T15:35:44.968Z,85.77
2024-01-15T15:38:17.485Z,85.52
2024-01-15T15:40:47.199Z,85.92
2024-01-15T15:43:14.434Z,85.68
2024-01-15T15:45:57.007Z,85.52
2024-01-15T15:52:35.238Z,86.25
2024-01-15T15:55:20.876Z,85.91
2024-01-15T16:50:09.007Z,85.13
2024-01-15T16:52:35.856Z,85.89
2024-01-15T16:55:02.652Z,86.23
2024-01-15T16:57:29.588Z,86.09
2024-01-15T16:59:56.018Z,85.97
2024-01-15T17:02:22.418Z,86.36
2024-01-15T17:04:48.895Z,85.81
2024-01-15T17:07:15.314Z,86.09
2024-01-15T17:09:42.097Z,86.37
2024-01-15T17:12:08.973Z,87.01
2024-01-15T17:14:36.392Z,87.52
2024-01-15T17:17:02.964Z,87.27
2024-01-15T17:19:33.842Z,87.88
2024-01-15T17:22:00.621Z,87.59
2024-01-15T17:24:27.388Z,87.01
2024-01-15T17:26:55.016Z,86.93
2024-01-15T17:29:21.778Z,86.93
2024-01-15T17:31:51.039Z,86.19
2024-01-15T17:34:17.576Z,86.74
2024-01-15T17:36:44.139Z,86.92
2024-01-15T17:39:10.746Z,86.45
2024-01-15T17:41:37.363Z,86.84
2024-01-15T17:44:04.296Z,86.15
2024-01-15T17:46:30.720Z,86.33
2024-01-15T17:49:03.693Z,85.89
2024-01-15T17:51:35.292Z,85.58
2024-01-15T17:54:02.685Z,85.90
2024-01-15T17:56:32.003Z,86.15
2024-01-15T17:58:58.751Z,85.67
2024-01-15T18:01:25.473Z,85.38
2024-01-15T18:03:53.709Z,85.40
2024-01-15T18:06:20.534Z,85.72
2024-01-15T18:08:47.076Z,84.86
2024-01-15T18:11:23.054Z,85.47
2024-01-15T18:13:49.670Z,85.45
2024-01-15T18:16:17.528Z,85.39
2024-01-15T18:18:46.117Z,84.99
2024-01-15T18:21:12.663Z,85.96
2024-01-15T18:23:39.783Z,86.55
2024-01-15T18:26:06.455Z,86.39
2024-01-15T18:28:33.164Z,87.01
2024-01-15T18:30:59.541Z,86.51
2024-01-15T18:33:26.065Z,86.17
2024-01-15T18:35:53.038Z,85.54
2024-01-15T18:38:19.520Z,85.99
2024-01-15T18:40:45.969Z,86.28
2024-01-15T18:43:12.615Z,86.34
2024-01-15T18:45:39.314Z,86.37
2024-01-15T18:48:07.607Z,86.16
2024-01-15T18:50:34.354Z,86.53
2024-01-15T18:53:01.052Z,86.30
2024-01-15T18:55:27.473Z,86.85
2024-01-15T18:57:56.371Z,88.00
2024-01-15T19:00:25.628Z,87.27
2024-01-15T19:02:54.583Z,88.19
2024-01-15T19:05:21.181Z,88.08
2024-01-15T19:07:47.608Z,88.71
2024-01-15T19:10:14.225Z,88.10
2024-01-15T19:12:40.755Z,88.20
2024-01-15T19:15:08.019Z,87.86
2024-01-15T19:17:34.924Z,88.00
2024-01-15T19:20:02.088Z,87.81
2024-01-15T19:22:28.608Z,88.38
2024-01-15T19:24:55.034Z,87.95
2024-01-15T19:27:22.179Z,88.61
2024-01-15T19:29:48.676Z,88.34
2024-01-15T19:32:15.181Z,88.64
2024-01-15T19:34:41.653Z,88.82
2024-01-15T19:37:08.110Z,89.66
2024-01-15T19:39:34.703Z,89.44
2024-01-15T19:42:02.134Z,89.69
2024-01-15T19:44:28.823Z,90.22
2024-01-15T19:46:56.092Z,89.71
2024-01-15T19:49:22.664Z,90.10
2024-01-15T19:51:49.238Z,90.27
2024-01-15T19:54:17.853Z,89.75
2024-01-15T19:56:45.211Z,89.87
2024-01-15T19:59:11.741Z,89.37
2024-01-15T20:01:38.430Z,90.35
2024-01-15T20:04:06.141Z,90.55
2024-01-15T20:06:33.003Z,89.33
2024-01-15T20:08:59.972Z,88.97
2024-01-15T20:11:29.140Z,88.91
2024-01-15T20:13:55.688Z,89.32
2024-01-15T20:16:23.292Z,90.09
2024-01-15T20:18:49.948Z,89.02
2024-01-15T20:21:16.728Z,89.02
2024-01-15T20:23:51.021Z,88.95
2024-01-15T20:26:25.642Z,89.05
2024-01-15T20:28:52.317Z,88.62
2024-01-15T20:31:18.755Z,88.54
2024-01-15T20:33:45.272Z,88.72
2024-01-15T20:36:14.046Z,88.68
2024-01-15T20:38:40.646Z,89.36
2024-01-15T20:41:07.734Z,88.81
2024-01-15T20:43:35.364Z,88.26
2024-01-15T20:46:02.848Z,88.19
2024-01-15T20:48:32.788Z,88.40
2024-01-15T20:50:59.462Z,88.35
2024-01-15T20:53:26.270Z,88.23
2024-01-15T20:55:52.831Z,88.22
2024-01-15T20:58:24.016Z,88.02
2024-01-15T21:00:50.884Z,88.02
2024-01-15T21:03:18.699Z,87.92
2024-01-15T21:05:45.417Z,86.32
2024-01-15T21:08:11.962Z,86.33
2024-01-15T21:10:38.593Z,85.91
2024-01-15T21:13:05.332Z,85.37
2024-01-15T21:15:32.101Z,86.03
2024-01-15T21:18:02.262Z,85.40
2024-01-15T21:20:30.479Z,84.63
2024-01-15T21:22:56.886Z,84.75
2024-01-15T21:25:23.392Z,84.81
2024-01-15T21:27:50.102Z,84.52
2024-01-15T21:30:16.559Z,84.28
2024-01-15T21:32:43.599Z,83.88
2024-01-15T21:35:12.993Z,83.67
2024-01-15T21:37:44.166Z,83.57
2024-01-15T21:40:13.800Z,83.25
2024-01-15T21:42:41.054Z,83.29
2024-01-15T21:45:08.839Z,83.20
2024-01-15T21:47:37.939Z,82.82
2024-01-15T21:50:06.523Z,82.61
2024-01-15T21:52:33.372Z,82.64
2024-01-15T21:54:59.835Z,83.26
2024-01-15T21:57:26.444Z,82.87
2024-01-15T21:59:53.246Z,83.05
2024-01-15T22:02:19.796Z,83.20
2024-01-15T22:04:46.164Z,82.98
2024-01-15T22:07:12.691Z,83.26
2024-01-15T22:09:39.510Z,83.07
2024-01-15T22:12:06.250Z,83.01
2024-01-15T22:14:32.700Z,82.60
2024-01-15T22:16:59.311Z,82.60
2024-01-15T22:19:25.855Z,82.49
2024-01-15T22:21:53.097Z,82.48
2024-01-15T22:24:19.623Z,81.90
2024-01-15T22:26:46.573Z,82.19
2024-01-15T22:29:13.104Z,81.89
2024-01-15T22:31:39.499Z,82.74
2024-01-15T22:34:06.294Z,82.38
2024-01-15T22:36:33.032Z,81.80
2024-01-15T22:38:59.695Z,82.59
2024-01-15T22:41:26.182Z,81.78
2024-01-15T22:43:52.703Z,81.83
2024-01-15T22:46:19.441Z,81.27
2024-01-15T22:48:46.100Z,81.17
2024-01-15T22:51:13.332Z,80.93
2024-01-15T22:53:39.899Z,80.79
2024-01-15T22:56:06.572Z,81.22
2024-01-15T22:58:33.902Z,81.28
2024-01-15T23:01:01.862Z,81.37
2024-01-15T23:03:28.738Z,81.16
2024-01-15T23:05:55.281Z,81.11
2024-01-15T23:08:22.880Z,81.29
2024-01-15T23:10:49.497Z,81.07
2024-01-15T23:13:16.273Z,81.66
2024-01-15T23:15:42.950Z,81.21
2024-01-15T23:18:12.176Z,81.17
2024-01-15T23:20:38.924Z,81.10
2024-01-15T23:23:05.664Z,81.40
2024-01-15T23:25:32.219Z,81.02
2024-01-15T23:27:58.935Z,81.07
2024-01-15T23:30:25.611Z,81.02
2024-01-15T23:32:53.225Z,81.05
2024-01-15T23:35:20.128Z,81.33
2024-01-15T23:37:46.675Z,80.96
2024-01-15T23:40:13.525Z,80.97
2024-01-15T23:42:40.805Z,81.18
2024-01-15T23:45:07.851Z,81.42
2024-01-15T23:47:34.719Z,82.13
2024-01-15T23:50:01.218Z,81.17
2024-01-15T23:52:27.674Z,81.60
2024-01-15T23:54:54.091Z,81.56
2024-01-15T23:57:20.543Z,81.85
2024-01-15T23:59:47.277Z,81.48
